Steven Mcallister — WDD9664 — position and weather

sailwx.info

Track history (hours):
 
Tides and Currents Weather Stations Pressure Air Temp Water Temp Dewpoint Dewpoint Depression Visibility Wind Speed Wind Dir Waves Ship Positions

Steven Mcallister

Owner: McAllister Towing & Transportatation Company Inc., Staten Island, NY. More information available from US FCC via Universal Licensing System and Coast Guard Vessel Documentation Center.

Last reported at 2017-Dec-18 16:51 UTC. Time now 2018-Jan-19 00:10 UTC.
Position N 36°50' W 076°17'.
Warning: this ship's position is 31 days out of date.

Length 30 m; draft 3.7 m.

Type: Tug. MMSI: 367314610.

Date/timePositionNaut miles runAvg speedWind from/ knotsBaromVisibWave heightAir tempDewpointWater temp
2017-Dec-18 16:51N 36°50' W 076°17'1 1.7
2017-Dec-18 16:30N 36°50' W 076°17'0 0.0
2017-Dec-18 15:59N 36°50' W 076°17'0 0.0
2017-Dec-18 15:30N 36°50' W 076°17'0 0.0
2017-Dec-18 15:00N 36°50' W 076°17'0 0.0
2017-Dec-18 14:30N 36°50' W 076°17'0 0.0
2017-Dec-18 14:01N 36°50' W 076°17'0 0.0
2017-Dec-18 13:30N 36°50' W 076°17'0 0.0
2017-Dec-18 13:01N 36°50' W 076°17'0 0.0
2017-Dec-18 12:31N 36°50' W 076°17'0 0.0
2017-Dec-18 12:01N 36°50' W 076°17'0 0.0
2017-Dec-18 11:30N 36°50' W 076°17'0 0.0
2017-Dec-18 11:00N 36°50' W 076°17'0 0.0
2017-Dec-18 10:30N 36°50' W 076°17'0 0.0
2017-Dec-18 10:00N 36°50' W 076°17'0 0.0
2017-Dec-18 09:31N 36°50' W 076°17'0 0.0
2017-Dec-18 09:01N 36°50' W 076°17'0 0.0
2017-Dec-18 08:31N 36°50' W 076°17'0 0.0
2017-Dec-18 08:01N 36°50' W 076°17'0 0.0
2017-Dec-18 07:31N 36°50' W 076°17'0 0.0
2017-Dec-18 07:00N 36°50' W 076°17'0 0.0
2017-Dec-18 06:31N 36°50' W 076°17'0 0.0
2017-Dec-18 06:01N 36°50' W 076°17'0 0.0
2017-Dec-18 05:30N 36°50' W 076°17'0 0.0
2017-Dec-18 05:01N 36°50' W 076°17'0 0.0
2017-Dec-18 04:31N 36°50' W 076°17'0 0.0
2017-Dec-18 04:00N 36°50' W 076°17'0 0.0
2017-Dec-18 03:31N 36°50' W 076°17'0 0.0
2017-Dec-18 03:00N 36°50' W 076°17'0 0.0
2017-Dec-18 02:30N 36°50' W 076°17'0 0.0
2017-Dec-18 02:00N 36°50' W 076°17'0 0.0
2017-Dec-18 01:30N 36°50' W 076°17'0 0.0
2017-Dec-18 01:00N 36°50' W 076°17'0 0.0
2017-Dec-18 00:31N 36°50' W 076°17'0 0.0
2017-Dec-18 00:00N 36°50' W 076°17'0 0.0
2017-Dec-17 23:30N 36°50' W 076°17'0 0.0
2017-Dec-17 23:00N 36°50' W 076°17'0 0.0
2017-Dec-17 22:30N 36°50' W 076°17'0 0.0
2017-Dec-17 22:01N 36°50' W 076°17'0 0.0
2017-Dec-17 21:31N 36°50' W 076°17'0 0.0
2017-Dec-17 21:01N 36°50' W 076°17'0 0.0
2017-Dec-17 20:30N 36°50' W 076°17'0 0.0
2017-Dec-17 19:58N 36°50' W 076°17'0 0.0
2017-Dec-17 19:31N 36°50' W 076°17'0 0.0
2017-Dec-17 19:01N 36°50' W 076°17'0 0.0
2017-Dec-17 18:30N 36°50' W 076°17'0 0.0
2017-Dec-17 18:00N 36°50' W 076°17'0 0.0
2017-Dec-17 17:31N 36°50' W 076°17'0 0.0
2017-Dec-17 17:01N 36°50' W 076°17'0 0.0
2017-Dec-17 16:31N 36°50' W 076°17'0 0.0
2017-Dec-17 16:01N 36°50' W 076°17'0 0.0
2017-Dec-17 15:31N 36°50' W 076°17'1 2.4
2017-Dec-17 15:00N 36°51' W 076°18'4 8.3
2017-Dec-17 14:29N 36°55' W 076°20'1 0.2
2017-Dec-17 12:10N 36°56' W 076°20'210.9
2017-Dec-17 12:00N 36°54' W 076°20'2 3.4
2017-Dec-17 11:30N 36°52' W 076°21'1 1.5
2017-Dec-17 11:00N 36°53' W 076°20'2 4.3
2017-Dec-17 10:30N 36°55' W 076°20'3 5.4
2017-Dec-17 10:01N 36°52' W 076°21'0 0.0
2017-Dec-17 09:30N 36°52' W 076°21'0 0.0
2017-Dec-17 09:00N 36°52' W 076°21'0 0.0
2017-Dec-17 08:31N 36°52' W 076°21'0 0.0
2017-Dec-17 08:01N 36°52' W 076°21'0 0.0
2017-Dec-17 07:30N 36°52' W 076°21'0 0.0
2017-Dec-17 07:00N 36°52' W 076°21'0 0.0
2017-Dec-17 06:31N 36°52' W 076°21'0 0.0
2017-Dec-17 06:00N 36°52' W 076°21'0 0.0
2017-Dec-17 05:30N 36°52' W 076°21'0 0.0
2017-Dec-17 05:01N 36°52' W 076°21'1 2.0
2017-Dec-17 04:27N 36°53' W 076°20'1 2.2
2017-Dec-17 04:00N 36°52' W 076°21'1 1.6
2017-Dec-17 03:30N 36°52' W 076°20'1 2.2
2017-Dec-17 03:00N 36°51' W 076°19'0 0.0
2017-Dec-17 02:30N 36°51' W 076°19'0 0.0
2017-Dec-17 02:01N 36°51' W 076°19'0 0.0
2017-Dec-17 01:31N 36°51' W 076°19'0 0.0
2017-Dec-17 01:00N 36°51' W 076°19'4 7.7
2017-Dec-17 00:31N 36°48' W 076°18'0 0.2
2017-Dec-17 00:00N 36°48' W 076°18'1 2.4
2017-Dec-16 23:30N 36°49' W 076°17'3 5.1
2017-Dec-16 23:00N 36°51' W 076°19'0 0.7
2017-Dec-16 22:29N 36°51' W 076°19'0 0.0
2017-Dec-16 22:01N 36°51' W 076°19'0 0.0
2017-Dec-16 21:30N 36°51' W 076°19'0 0.0
2017-Dec-16 21:00N 36°51' W 076°19'0 0.0
2017-Dec-16 20:30N 36°51' W 076°19'0 0.0
2017-Dec-16 19:59N 36°51' W 076°19'0 0.0
2017-Dec-16 19:26N 36°51' W 076°19'0 0.0
2017-Dec-16 19:00N 36°51' W 076°19'0 0.0
2017-Dec-16 18:18N 36°51' W 076°19'0 0.0
2017-Dec-16 18:01N 36°51' W 076°19'0 0.0
2017-Dec-16 17:30N 36°51' W 076°19'0 0.2
2017-Dec-16 16:45N 36°52' W 076°19'1 4.4
2017-Dec-16 16:30N 36°53' W 076°20'1 2.4
2017-Dec-16 16:00N 36°51' W 076°19'1 1.6
2017-Dec-16 15:30N 36°52' W 076°20'4 1.5
2017-Dec-16 12:59N 36°56' W 076°20'0 0.0
2017-Dec-16 04:01N 36°56' W 076°20'0 1.9
2017-Dec-16 03:49N 36°55' W 076°20'0 0.0
2017-Dec-16 03:22N 36°55' W 076°20'0 0.2
2017-Dec-16 01:15N 36°56' W 076°20'310.4
2017-Dec-16 01:00N 36°53' W 076°20'2 3.5
2017-Dec-16 00:28N 36°51' W 076°20'0 0.7
2017-Dec-16 00:00N 36°52' W 076°19'4 7.2
2017-Dec-15 23:29N 36°55' W 076°20'1 0.3
2017-Dec-15 20:12N 36°56' W 076°20'1 3.1
2017-Dec-15 19:59N 36°56' W 076°20'0 0.1
2017-Dec-15 19:00N 36°55' W 076°20'0 0.1
2017-Dec-15 12:29N 36°56' W 076°20'4 9.0
2017-Dec-15 12:00N 36°51' W 076°20'1 1.7
2017-Dec-15 11:11N 36°53' W 076°20'1 1.9
2017-Dec-15 10:54N 36°53' W 076°20'1 2.1
2017-Dec-15 10:30N 36°53' W 076°21'0 0.0
2017-Dec-15 10:00N 36°53' W 076°21'0 0.0
2017-Dec-15 07:59N 36°53' W 076°21'0 0.7
2017-Dec-15 07:27N 36°52' W 076°21'0 0.1
2017-Dec-15 06:59N 36°52' W 076°21'0 0.3
2017-Dec-15 06:28N 36°53' W 076°21'0 0.0
2017-Dec-15 06:00N 36°53' W 076°21'2 3.8
2017-Dec-15 05:30N 36°54' W 076°20'1 0.1
2017-Dec-14 16:58N 36°56' W 076°20'1 2.9
2017-Dec-14 16:30N 36°57' W 076°20'0 0.1
2017-Dec-14 12:35N 36°56' W 076°20'111.7
2017-Dec-14 12:27N 36°55' W 076°20'3 6.1
2017-Dec-14 12:00N 36°52' W 076°21'0 0.8
2017-Dec-14 11:29N 36°53' W 076°21'3 5.3
2017-Dec-14 10:57N 36°55' W 076°20'1 0.0
2017-Dec-13 15:40N 36°56' W 076°20'1 7.7
2017-Dec-13 15:30N 36°55' W 076°20'1 0.3
2017-Dec-13 11:31N 36°56' W 076°20'0 0.6
2017-Dec-13 11:30N 36°56' W 076°20'0 0.0
2017-Dec-13 01:53N 36°55' W 076°20'2 6.0
2017-Dec-13 01:30N 36°53' W 076°20'0 0.3
2017-Dec-13 00:53N 36°53' W 076°20'0 0.1
2017-Dec-13 00:30N 36°53' W 076°20'2 1.4
2017-Dec-12 23:16N 36°55' W 076°20'2 6.9
2017-Dec-12 22:57N 36°53' W 076°21'0 0.0
2017-Dec-12 21:49N 36°53' W 076°21'3 0.7
2017-Dec-12 17:09N 36°56' W 076°20'0 1.0
2017-Dec-12 16:50N 36°56' W 076°20'0 0.1
2017-Dec-12 16:24N 36°56' W 076°20'0 0.1
2017-Dec-12 13:16N 36°56' W 076°20'0 0.6
2017-Dec-12 12:49N 36°56' W 076°20'0 0.1
2017-Dec-12 06:40N 36°56' W 076°20'1 0.1
2017-Dec-11 22:06N 36°56' W 076°20'0 0.2
2017-Dec-11 21:54N 36°56' W 076°20'3 7.7
2017-Dec-11 21:30N 36°53' W 076°21'0 0.7
2017-Dec-11 21:00N 36°52' W 076°21'1 1.7
2017-Dec-11 20:25N 36°53' W 076°20'3 0.4
2017-Dec-11 14:48N 36°56' W 076°20'3 9.1
2017-Dec-11 14:30N 36°53' W 076°20'1 1.5
2017-Dec-11 13:57N 36°52' W 076°21'3 5.8
2017-Dec-11 13:29N 36°55' W 076°20'1 0.4
2017-Dec-11 10:51N 36°56' W 076°20'0 0.0
2017-Dec-11 10:23N 36°56' W 076°20'0 0.0
2017-Dec-11 09:48N 36°56' W 076°20'0 0.0
2017-Dec-11 09:28N 36°56' W 076°20'0 0.0
2017-Dec-11 08:51N 36°56' W 076°20'0 0.6
2017-Dec-11 08:29N 36°56' W 076°20'1 1.7
2017-Dec-11 07:47N 36°55' W 076°20'1 4.4
2017-Dec-11 07:29N 36°56' W 076°20'0 0.0
2017-Dec-11 06:58N 36°56' W 076°20'0 0.0
2017-Dec-11 06:29N 36°56' W 076°20'0 0.0
2017-Dec-11 06:00N 36°56' W 076°20'0 0.0
2017-Dec-11 05:30N 36°56' W 076°20'0 0.0
2017-Dec-11 05:00N 36°56' W 076°20'0 0.0
2017-Dec-11 04:30N 36°56' W 076°20'0 0.0
2017-Dec-11 04:00N 36°56' W 076°20'0 0.0
2017-Dec-11 03:30N 36°56' W 076°20'0 0.0
2017-Dec-11 03:00N 36°56' W 076°20'0 0.5
2017-Dec-11 02:26N 36°56' W 076°20'1 1.7
2017-Dec-11 01:51N 36°56' W 076°20'1 1.5
2017-Dec-11 01:29N 36°56' W 076°20'0 0.1
2017-Dec-10 23:52N 36°56' W 076°20'0 0.0
2017-Dec-10 23:30N 36°56' W 076°20'2 1.1
2017-Dec-10 21:25N 36°54' W 076°20'1 2.8
2017-Dec-10 21:00N 36°53' W 076°21'1 1.9
2017-Dec-10 20:30N 36°53' W 076°20'2 3.0
2017-Dec-10 19:59N 36°55' W 076°20'5 9.5
2017-Dec-10 19:30N 36°51' W 076°18'3 5.1
2017-Dec-10 19:00N 36°48' W 076°17'0 0.0
2017-Dec-10 18:30N 36°48' W 076°17'2 3.8
2017-Dec-10 18:00N 36°50' W 076°18'2 4.2
2017-Dec-10 17:29N 36°51' W 076°20'0 0.0
2017-Dec-10 16:40N 36°51' W 076°20'0 0.0
2017-Dec-10 13:18N 36°51' W 076°20'0 0.5
2017-Dec-10 12:59N 36°51' W 076°20'0 0.1
2017-Dec-10 12:30N 36°51' W 076°20'0 0.0
2017-Dec-10 12:00N 36°51' W 076°20'1 2.8
2017-Dec-10 11:31N 36°53' W 076°20'3 5.3
2017-Dec-10 10:58N 36°56' W 076°20'1 2.5
2017-Dec-10 10:30N 36°55' W 076°20'1 1.4
2017-Dec-10 10:00N 36°55' W 076°20'1 1.8
2017-Dec-10 09:22N 36°56' W 076°20'0 0.6
2017-Dec-10 08:56N 36°56' W 076°20'4 8.7
2017-Dec-10 08:30N 36°52' W 076°20'3 5.0
2017-Dec-10 08:00N 36°50' W 076°17'0 0.0
2017-Dec-10 07:30N 36°50' W 076°17'0 0.0
2017-Dec-10 07:00N 36°50' W 076°17'0 0.0
2017-Dec-10 06:30N 36°50' W 076°17'0 0.0
2017-Dec-10 06:00N 36°50' W 076°17'0 0.0
2017-Dec-10 05:30N 36°50' W 076°17'0 0.0
2017-Dec-10 05:00N 36°50' W 076°17'0 0.0
2017-Dec-10 04:30N 36°50' W 076°17'0 0.0
2017-Dec-10 04:00N 36°50' W 076°17'0 0.0
2017-Dec-10 03:30N 36°50' W 076°17'0 0.0
2017-Dec-10 03:00N 36°50' W 076°17'0 0.0
2017-Dec-10 02:30N 36°50' W 076°17'0 0.0
2017-Dec-10 02:00N 36°50' W 076°17'0 0.0
2017-Dec-10 01:30N 36°50' W 076°17'0 0.0
2017-Dec-10 01:00N 36°50' W 076°17'0 0.0
2017-Dec-10 00:30N 36°50' W 076°17'0 0.0
2017-Dec-09 23:59N 36°50' W 076°17'2 4.2
2017-Dec-09 23:30N 36°52' W 076°19'0 0.2
2017-Dec-09 22:56N 36°51' W 076°19'0 0.4
2017-Dec-09 22:25N 36°51' W 076°20'0 0.9
2017-Dec-09 22:00N 36°52' W 076°19'1 1.1
2017-Dec-09 21:23N 36°52' W 076°20'0 0.5
2017-Dec-09 20:59N 36°52' W 076°20'3 0.1
2017-Dec-08 23:34N 36°55' W 076°20'1 3.7
2017-Dec-08 23:19N 36°55' W 076°20'  
Track history (hours):
 
Tides and Currents Weather Stations Pressure Air Temp Water Temp Dewpoint Dewpoint Depression Visibility Wind Speed Wind Dir Waves Ship Positions

Steven Mcallister

Owner: McAllister Towing & Transportatation Company Inc., Staten Island, NY. More information available from US FCC via Universal Licensing System and Coast Guard Vessel Documentation Center.

Last reported at 2017-Dec-18 16:51 UTC. Time now 2018-Jan-19 00:10 UTC.
Position N 36°50' W 076°17'.
Warning: this ship's position is 31 days out of date.

Length 30 m; draft 3.7 m.

Type: Tug. MMSI: 367314610.

Date/timePositionNaut miles runAvg speedWind from/ knotsBaromVisibWave heightAir tempDewpointWater temp
2017-Dec-18 16:51N 36°50' W 076°17'1 1.7
2017-Dec-18 16:30N 36°50' W 076°17'0 0.0
2017-Dec-18 15:59N 36°50' W 076°17'0 0.0
2017-Dec-18 15:30N 36°50' W 076°17'0 0.0
2017-Dec-18 15:00N 36°50' W 076°17'0 0.0
2017-Dec-18 14:30N 36°50' W 076°17'0 0.0
2017-Dec-18 14:01N 36°50' W 076°17'0 0.0
2017-Dec-18 13:30N 36°50' W 076°17'0 0.0
2017-Dec-18 13:01N 36°50' W 076°17'0 0.0
2017-Dec-18 12:31N 36°50' W 076°17'0 0.0
2017-Dec-18 12:01N 36°50' W 076°17'0 0.0
2017-Dec-18 11:30N 36°50' W 076°17'0 0.0
2017-Dec-18 11:00N 36°50' W 076°17'0 0.0
2017-Dec-18 10:30N 36°50' W 076°17'0 0.0
2017-Dec-18 10:00N 36°50' W 076°17'0 0.0
2017-Dec-18 09:31N 36°50' W 076°17'0 0.0
2017-Dec-18 09:01N 36°50' W 076°17'0 0.0
2017-Dec-18 08:31N 36°50' W 076°17'0 0.0
2017-Dec-18 08:01N 36°50' W 076°17'0 0.0
2017-Dec-18 07:31N 36°50' W 076°17'0 0.0
2017-Dec-18 07:00N 36°50' W 076°17'0 0.0
2017-Dec-18 06:31N 36°50' W 076°17'0 0.0
2017-Dec-18 06:01N 36°50' W 076°17'0 0.0
2017-Dec-18 05:30N 36°50' W 076°17'0 0.0
2017-Dec-18 05:01N 36°50' W 076°17'0 0.0
2017-Dec-18 04:31N 36°50' W 076°17'0 0.0
2017-Dec-18 04:00N 36°50' W 076°17'0 0.0
2017-Dec-18 03:31N 36°50' W 076°17'0 0.0
2017-Dec-18 03:00N 36°50' W 076°17'0 0.0
2017-Dec-18 02:30N 36°50' W 076°17'0 0.0
2017-Dec-18 02:00N 36°50' W 076°17'0 0.0
2017-Dec-18 01:30N 36°50' W 076°17'0 0.0
2017-Dec-18 01:00N 36°50' W 076°17'0 0.0
2017-Dec-18 00:31N 36°50' W 076°17'0 0.0
2017-Dec-18 00:00N 36°50' W 076°17'0 0.0
2017-Dec-17 23:30N 36°50' W 076°17'0 0.0
2017-Dec-17 23:00N 36°50' W 076°17'0 0.0
2017-Dec-17 22:30N 36°50' W 076°17'0 0.0
2017-Dec-17 22:01N 36°50' W 076°17'0 0.0
2017-Dec-17 21:31N 36°50' W 076°17'0 0.0
2017-Dec-17 21:01N 36°50' W 076°17'0 0.0
2017-Dec-17 20:30N 36°50' W 076°17'0 0.0
2017-Dec-17 19:58N 36°50' W 076°17'0 0.0
2017-Dec-17 19:31N 36°50' W 076°17'0 0.0
2017-Dec-17 19:01N 36°50' W 076°17'0 0.0
2017-Dec-17 18:30N 36°50' W 076°17'0 0.0
2017-Dec-17 18:00N 36°50' W 076°17'0 0.0
2017-Dec-17 17:31N 36°50' W 076°17'0 0.0
2017-Dec-17 17:01N 36°50' W 076°17'0 0.0
2017-Dec-17 16:31N 36°50' W 076°17'0 0.0
2017-Dec-17 16:01N 36°50' W 076°17'0 0.0
2017-Dec-17 15:31N 36°50' W 076°17'1 2.4
2017-Dec-17 15:00N 36°51' W 076°18'4 8.3
2017-Dec-17 14:29N 36°55' W 076°20'1 0.2
2017-Dec-17 12:10N 36°56' W 076°20'210.9
2017-Dec-17 12:00N 36°54' W 076°20'2 3.4
2017-Dec-17 11:30N 36°52' W 076°21'1 1.5
2017-Dec-17 11:00N 36°53' W 076°20'2 4.3
2017-Dec-17 10:30N 36°55' W 076°20'3 5.4
2017-Dec-17 10:01N 36°52' W 076°21'0 0.0
2017-Dec-17 09:30N 36°52' W 076°21'0 0.0
2017-Dec-17 09:00N 36°52' W 076°21'0 0.0
2017-Dec-17 08:31N 36°52' W 076°21'0 0.0
2017-Dec-17 08:01N 36°52' W 076°21'0 0.0
2017-Dec-17 07:30N 36°52' W 076°21'0 0.0
2017-Dec-17 07:00N 36°52' W 076°21'0 0.0
2017-Dec-17 06:31N 36°52' W 076°21'0 0.0
2017-Dec-17 06:00N 36°52' W 076°21'0 0.0
2017-Dec-17 05:30N 36°52' W 076°21'0 0.0
2017-Dec-17 05:01N 36°52' W 076°21'1 2.0
2017-Dec-17 04:27N 36°53' W 076°20'1 2.2
2017-Dec-17 04:00N 36°52' W 076°21'1 1.6
2017-Dec-17 03:30N 36°52' W 076°20'1 2.2
2017-Dec-17 03:00N 36°51' W 076°19'0 0.0
2017-Dec-17 02:30N 36°51' W 076°19'0 0.0
2017-Dec-17 02:01N 36°51' W 076°19'0 0.0
2017-Dec-17 01:31N 36°51' W 076°19'0 0.0
2017-Dec-17 01:00N 36°51' W 076°19'4 7.7
2017-Dec-17 00:31N 36°48' W 076°18'0 0.2
2017-Dec-17 00:00N 36°48' W 076°18'1 2.4
2017-Dec-16 23:30N 36°49' W 076°17'3 5.1
2017-Dec-16 23:00N 36°51' W 076°19'0 0.7
2017-Dec-16 22:29N 36°51' W 076°19'0 0.0
2017-Dec-16 22:01N 36°51' W 076°19'0 0.0
2017-Dec-16 21:30N 36°51' W 076°19'0 0.0
2017-Dec-16 21:00N 36°51' W 076°19'0 0.0
2017-Dec-16 20:30N 36°51' W 076°19'0 0.0
2017-Dec-16 19:59N 36°51' W 076°19'0 0.0
2017-Dec-16 19:26N 36°51' W 076°19'0 0.0
2017-Dec-16 19:00N 36°51' W 076°19'0 0.0
2017-Dec-16 18:18N 36°51' W 076°19'0 0.0
2017-Dec-16 18:01N 36°51' W 076°19'0 0.0
2017-Dec-16 17:30N 36°51' W 076°19'0 0.2
2017-Dec-16 16:45N 36°52' W 076°19'1 4.4
2017-Dec-16 16:30N 36°53' W 076°20'1 2.4
2017-Dec-16 16:00N 36°51' W 076°19'1 1.6
2017-Dec-16 15:30N 36°52' W 076°20'4 1.5
2017-Dec-16 12:59N 36°56' W 076°20'0 0.0
2017-Dec-16 04:01N 36°56' W 076°20'0 1.9
2017-Dec-16 03:49N 36°55' W 076°20'0 0.0
2017-Dec-16 03:22N 36°55' W 076°20'0 0.2
2017-Dec-16 01:15N 36°56' W 076°20'310.4
2017-Dec-16 01:00N 36°53' W 076°20'2 3.5
2017-Dec-16 00:28N 36°51' W 076°20'0 0.7
2017-Dec-16 00:00N 36°52' W 076°19'4 7.2
2017-Dec-15 23:29N 36°55' W 076°20'1 0.3
2017-Dec-15 20:12N 36°56' W 076°20'1 3.1
2017-Dec-15 19:59N 36°56' W 076°20'0 0.1
2017-Dec-15 19:00N 36°55' W 076°20'0 0.1
2017-Dec-15 12:29N 36°56' W 076°20'4 9.0
2017-Dec-15 12:00N 36°51' W 076°20'1 1.7
2017-Dec-15 11:11N 36°53' W 076°20'1 1.9
2017-Dec-15 10:54N 36°53' W 076°20'1 2.1
2017-Dec-15 10:30N 36°53' W 076°21'0 0.0
2017-Dec-15 10:00N 36°53' W 076°21'0 0.0
2017-Dec-15 07:59N 36°53' W 076°21'0 0.7
2017-Dec-15 07:27N 36°52' W 076°21'0 0.1
2017-Dec-15 06:59N 36°52' W 076°21'0 0.3
2017-Dec-15 06:28N 36°53' W 076°21'0 0.0
2017-Dec-15 06:00N 36°53' W 076°21'2 3.8
2017-Dec-15 05:30N 36°54' W 076°20'1 0.1
2017-Dec-14 16:58N 36°56' W 076°20'1 2.9
2017-Dec-14 16:30N 36°57' W 076°20'0 0.1
2017-Dec-14 12:35N 36°56' W 076°20'111.7
2017-Dec-14 12:27N 36°55' W 076°20'3 6.1
2017-Dec-14 12:00N 36°52' W 076°21'0 0.8
2017-Dec-14 11:29N 36°53' W 076°21'3 5.3
2017-Dec-14 10:57N 36°55' W 076°20'1 0.0
2017-Dec-13 15:40N 36°56' W 076°20'1 7.7
2017-Dec-13 15:30N 36°55' W 076°20'1 0.3
2017-Dec-13 11:31N 36°56' W 076°20'0 0.6
2017-Dec-13 11:30N 36°56' W 076°20'0 0.0
2017-Dec-13 01:53N 36°55' W 076°20'2 6.0
2017-Dec-13 01:30N 36°53' W 076°20'0 0.3
2017-Dec-13 00:53N 36°53' W 076°20'0 0.1
2017-Dec-13 00:30N 36°53' W 076°20'2 1.4
2017-Dec-12 23:16N 36°55' W 076°20'2 6.9
2017-Dec-12 22:57N 36°53' W 076°21'0 0.0
2017-Dec-12 21:49N 36°53' W 076°21'3 0.7
2017-Dec-12 17:09N 36°56' W 076°20'0 1.0
2017-Dec-12 16:50N 36°56' W 076°20'0 0.1
2017-Dec-12 16:24N 36°56' W 076°20'0 0.1
2017-Dec-12 13:16N 36°56' W 076°20'0 0.6
2017-Dec-12 12:49N 36°56' W 076°20'0 0.1
2017-Dec-12 06:40N 36°56' W 076°20'1 0.1
2017-Dec-11 22:06N 36°56' W 076°20'0 0.2
2017-Dec-11 21:54N 36°56' W 076°20'3 7.7
2017-Dec-11 21:30N 36°53' W 076°21'0 0.7
2017-Dec-11 21:00N 36°52' W 076°21'1 1.7
2017-Dec-11 20:25N 36°53' W 076°20'3 0.4
2017-Dec-11 14:48N 36°56' W 076°20'3 9.1
2017-Dec-11 14:30N 36°53' W 076°20'1 1.5
2017-Dec-11 13:57N 36°52' W 076°21'3 5.8
2017-Dec-11 13:29N 36°55' W 076°20'1 0.4
2017-Dec-11 10:51N 36°56' W 076°20'0 0.0
2017-Dec-11 10:23N 36°56' W 076°20'0 0.0
2017-Dec-11 09:48N 36°56' W 076°20'0 0.0
2017-Dec-11 09:28N 36°56' W 076°20'0 0.0
2017-Dec-11 08:51N 36°56' W 076°20'0 0.6
2017-Dec-11 08:29N 36°56' W 076°20'1 1.7
2017-Dec-11 07:47N 36°55' W 076°20'1 4.4
2017-Dec-11 07:29N 36°56' W 076°20'0 0.0
2017-Dec-11 06:58N 36°56' W 076°20'0 0.0
2017-Dec-11 06:29N 36°56' W 076°20'0 0.0
2017-Dec-11 06:00N 36°56' W 076°20'0 0.0
2017-Dec-11 05:30N 36°56' W 076°20'0 0.0
2017-Dec-11 05:00N 36°56' W 076°20'0 0.0
2017-Dec-11 04:30N 36°56' W 076°20'0 0.0
2017-Dec-11 04:00N 36°56' W 076°20'0 0.0
2017-Dec-11 03:30N 36°56' W 076°20'0 0.0
2017-Dec-11 03:00N 36°56' W 076°20'0 0.5
2017-Dec-11 02:26N 36°56' W 076°20'1 1.7
2017-Dec-11 01:51N 36°56' W 076°20'1 1.5
2017-Dec-11 01:29N 36°56' W 076°20'0 0.1
2017-Dec-10 23:52N 36°56' W 076°20'0 0.0
2017-Dec-10 23:30N 36°56' W 076°20'2 1.1
2017-Dec-10 21:25N 36°54' W 076°20'1 2.8
2017-Dec-10 21:00N 36°53' W 076°21'1 1.9
2017-Dec-10 20:30N 36°53' W 076°20'2 3.0
2017-Dec-10 19:59N 36°55' W 076°20'5 9.5
2017-Dec-10 19:30N 36°51' W 076°18'3 5.1
2017-Dec-10 19:00N 36°48' W 076°17'0 0.0
2017-Dec-10 18:30N 36°48' W 076°17'2 3.8
2017-Dec-10 18:00N 36°50' W 076°18'2 4.2
2017-Dec-10 17:29N 36°51' W 076°20'0 0.0
2017-Dec-10 16:40N 36°51' W 076°20'0 0.0
2017-Dec-10 13:18N 36°51' W 076°20'0 0.5
2017-Dec-10 12:59N 36°51' W 076°20'0 0.1
2017-Dec-10 12:30N 36°51' W 076°20'0 0.0
2017-Dec-10 12:00N 36°51' W 076°20'1 2.8
2017-Dec-10 11:31N 36°53' W 076°20'3 5.3
2017-Dec-10 10:58N 36°56' W 076°20'1 2.5
2017-Dec-10 10:30N 36°55' W 076°20'1 1.4
2017-Dec-10 10:00N 36°55' W 076°20'1 1.8
2017-Dec-10 09:22N 36°56' W 076°20'0 0.6
2017-Dec-10 08:56N 36°56' W 076°20'4 8.7
2017-Dec-10 08:30N 36°52' W 076°20'3 5.0
2017-Dec-10 08:00N 36°50' W 076°17'0 0.0
2017-Dec-10 07:30N 36°50' W 076°17'0 0.0
2017-Dec-10 07:00N 36°50' W 076°17'0 0.0
2017-Dec-10 06:30N 36°50' W 076°17'0 0.0
2017-Dec-10 06:00N 36°50' W 076°17'0 0.0
2017-Dec-10 05:30N 36°50' W 076°17'0 0.0
2017-Dec-10 05:00N 36°50' W 076°17'0 0.0
2017-Dec-10 04:30N 36°50' W 076°17'0 0.0
2017-Dec-10 04:00N 36°50' W 076°17'0 0.0
2017-Dec-10 03:30N 36°50' W 076°17'0 0.0
2017-Dec-10 03:00N 36°50' W 076°17'0 0.0
2017-Dec-10 02:30N 36°50' W 076°17'0 0.0
2017-Dec-10 02:00N 36°50' W 076°17'0 0.0
2017-Dec-10 01:30N 36°50' W 076°17'0 0.0
2017-Dec-10 01:00N 36°50' W 076°17'0 0.0
2017-Dec-10 00:30N 36°50' W 076°17'0 0.0
2017-Dec-09 23:59N 36°50' W 076°17'2 4.2
2017-Dec-09 23:30N 36°52' W 076°19'0 0.2
2017-Dec-09 22:56N 36°51' W 076°19'0 0.4
2017-Dec-09 22:25N 36°51' W 076°20'0 0.9
2017-Dec-09 22:00N 36°52' W 076°19'1 1.1
2017-Dec-09 21:23N 36°52' W 076°20'0 0.5
2017-Dec-09 20:59N 36°52' W 076°20'3 0.1
2017-Dec-08 23:34N 36°55' W 076°20'1 3.7
2017-Dec-08 23:19N 36°55' W 076°20'  

Dump ship's entire track history